sensor_id;sensor_type;location;lat;lon;timestamp;temperature;humidity
20881;DHT22;10600;53.096;8.802;2022-12-07T00:00:01;4.40;99.90
20881;DHT22;10600;53.096;8.802;2022-12-07T00:01:13;4.40;99.90
20881;DHT22;10600;53.096;8.802;2022-12-07T00:02:14;4.40;99.90
20881;DHT22;10600;53.096;8.802;2022-12-07T00:03:14;4.40;99.90
20881;DHT22;10600;53.096;8.802;2022-12-07T00:04:16;4.40;99.90
20881;DHT22;10600;53.096;8.802;2022-12-07T00:05:18;4.40;99.90
20881;DHT22;10600;53.096;8.802;2022-12-07T00:06:19;4.40;99.90
20881;DHT22;10600;53.096;8.802;2022-12-07T00:07:20;4.30;99.90
20881;DHT22;10600;53.096;8.802;2022-12-07T00:08:21;4.30;99.90
20881;DHT22;10600;53.096;8.802;2022-12-07T00:09:21;4.30;99.90
20881;DHT22;10600;53.096;8.802;2022-12-07T00:10:22;4.30;99.90
20881;DHT22;10600;53.096;8.802;2022-12-07T00:11:23;4.30;99.90
20881;DHT22;10600;53.096;8.802;2022-12-07T00:12:24;4.30;99.90
20881;DHT22;10600;53.096;8.802;2022-12-07T00:13:24;4.30;99.90
20881;DHT22;10600;53.096;8.802;2022-12-07T00:14:25;4.30;99.90
20881;DHT22;10600;53.096;8.802;2022-12-07T00:15:26;4.30;99.90
20881;DHT22;10600;53.096;8.802;2022-12-07T00:16:29;4.30;99.90
20881;DHT22;10600;53.096;8.802;2022-12-07T00:17:30;4.20;99.90
20881;DHT22;10600;53.096;8.802;2022-12-07T00:18:30;4.20;99.90
20881;DHT22;10600;53.096;8.802;2022-12-07T00:19:31;4.20;99.90
20881;DHT22;10600;53.096;8.802;2022-12-07T00:20:32;4.20;99.90
20881;DHT22;10600;53.096;8.802;2022-12-07T00:21:35;4.20;99.90
20881;DHT22;10600;53.096;8.802;2022-12-07T00:22:36;4.20;99.90
20881;DHT22;10600;53.096;8.802;2022-12-07T00:23:37;4.20;99.90
20881;DHT22;10600;53.096;8.802;2022-12-07T00:24:37;4.20;99.90
20881;DHT22;10600;53.096;8.802;2022-12-07T00:25:38;4.20;99.90
20881;DHT22;10600;53.096;8.802;2022-12-07T00:26:39;4.20;99.90
20881;DHT22;10600;53.096;8.802;2022-12-07T00:27:40;4.20;99.90
20881;DHT22;10600;53.096;8.802;2022-12-07T00:28:41;4.10;99.90
20881;DHT22;10600;53.096;8.802;2022-12-07T00:29:44;4.20;99.90
20881;DHT22;10600;53.096;8.802;2022-12-07T00:30:45;4.10;99.90
20881;DHT22;10600;53.096;8.802;2022-12-07T00:31:46;4.20;99.90
20881;DHT22;10600;53.096;8.802;2022-12-07T00:32:46;4.20;99.90
20881;DHT22;10600;53.096;8.802;2022-12-07T00:33:47;4.20;99.90
20881;DHT22;10600;53.096;8.802;2022-12-07T00:34:48;4.20;99.90
20881;DHT22;10600;53.096;8.802;2022-12-07T00:35:55;4.20;99.90
20881;DHT22;10600;53.096;8.802;2022-12-07T00:36:56;4.20;99.90
20881;DHT22;10600;53.096;8.802;2022-12-07T00:37:56;4.20;99.90
20881;DHT22;10600;53.096;8.802;2022-12-07T00:38:59;4.20;99.90
20881;DHT22;10600;53.096;8.802;2022-12-07T00:39:59;4.20;99.90
20881;DHT22;10600;53.096;8.802;2022-12-07T00:41:15;4.20;99.90
20881;DHT22;10600;53.096;8.802;2022-12-07T00:42:15;4.20;99.90
20881;DHT22;10600;53.096;8.802;2022-12-07T00:43:16;4.30;99.90
20881;DHT22;10600;53.096;8.802;2022-12-07T00:44:17;4.30;99.90
20881;DHT22;10600;53.096;8.802;2022-12-07T00:45:17;4.30;99.90
20881;DHT22;10600;53.096;8.802;2022-12-07T00:46:19;4.30;99.90
20881;DHT22;10600;53.096;8.802;2022-12-07T00:47:20;4.30;99.90
20881;DHT22;10600;53.096;8.802;2022-12-07T00:48:22;4.30;99.90
20881;DHT22;10600;53.096;8.802;2022-12-07T00:49:23;4.30;99.90
20881;DHT22;10600;53.096;8.802;2022-12-07T00:50:23;4.30;99.90
20881;DHT22;10600;53.096;8.802;2022-12-07T00:51:25;4.30;99.90
20881;DHT22;10600;53.096;8.802;2022-12-07T00:52:26;4.30;99.90
20881;DHT22;10600;53.096;8.802;2022-12-07T00:53:27;4.30;99.90
20881;DHT22;10600;53.096;8.802;2022-12-07T00:54:28;4.30;99.90
20881;DHT22;10600;53.096;8.802;2022-12-07T00:55:32;4.30;99.90
20881;DHT22;10600;53.096;8.802;2022-12-07T00:56:32;4.30;99.90
20881;DHT22;10600;53.096;8.802;2022-12-07T00:57:33;4.30;99.90
20881;DHT22;10600;53.096;8.802;2022-12-07T00:58:34;4.30;99.90
20881;DHT22;10600;53.096;8.802;2022-12-07T00:59:35;4.20;99.90
20881;DHT22;10600;53.096;8.802;2022-12-07T01:00:37;4.20;99.90
20881;DHT22;10600;53.096;8.802;2022-12-07T01:01:38;4.20;99.90
20881;DHT22;10600;53.096;8.802;2022-12-07T01:02:39;4.20;99.90
20881;DHT22;10600;53.096;8.802;2022-12-07T01:03:40;4.20;99.90
20881;DHT22;10600;53.096;8.802;2022-12-07T01:04:41;4.20;99.90
20881;DHT22;10600;53.096;8.802;2022-12-07T01:05:50;4.20;99.90
20881;DHT22;10600;53.096;8.802;2022-12-07T01:06:51;4.20;99.90
20881;DHT22;10600;53.096;8.802;2022-12-07T01:07:51;4.20;99.90
20881;DHT22;10600;53.096;8.802;2022-12-07T01:08:53;4.20;99.90
20881;DHT22;10600;53.096;8.802;2022-12-07T01:09:54;4.20;99.90
20881;DHT22;10600;53.096;8.802;2022-12-07T01:11:04;4.20;99.90
20881;DHT22;10600;53.096;8.802;2022-12-07T01:12:05;4.20;99.90
20881;DHT22;10600;53.096;8.802;2022-12-07T01:13:06;4.30;99.90
20881;DHT22;10600;53.096;8.802;2022-12-07T01:14:07;4.30;99.90
20881;DHT22;10600;53.096;8.802;2022-12-07T01:15:09;4.30;99.90
20881;DHT22;10600;53.096;8.802;2022-12-07T01:16:12;4.30;99.90
20881;DHT22;10600;53.096;8.802;2022-12-07T01:17:13;4.20;99.90
20881;DHT22;10600;53.096;8.802;2022-12-07T01:18:14;4.30;99.90
20881;DHT22;10600;53.096;8.802;2022-12-07T01:19:15;4.30;99.90
20881;DHT22;10600;53.096;8.802;2022-12-07T01:20:15;4.30;99.90
20881;DHT22;10600;53.096;8.802;2022-12-07T01:21:24;4.30;99.90
20881;DHT22;10600;53.096;8.802;2022-12-07T01:22:25;4.30;99.90
20881;DHT22;10600;53.096;8.802;2022-12-07T01:23:25;4.30;99.90
20881;DHT22;10600;53.096;8.802;2022-12-07T01:24:26;4.40;99.90
20881;DHT22;10600;53.096;8.802;2022-12-07T01:25:27;4.40;99.90
20881;DHT22;10600;53.096;8.802;2022-12-07T01:26:27;4.40;99.90
20881;DHT22;10600;53.096;8.802;2022-12-07T01:27:28;4.40;99.90
20881;DHT22;10600;53.096;8.802;2022-12-07T01:28:29;4.40;99.90
20881;DHT22;10600;53.096;8.802;2022-12-07T01:29:29;4.40;99.90
20881;DHT22;10600;53.096;8.802;2022-12-07T01:30:30;4.40;99.90
20881;DHT22;10600;53.096;8.802;2022-12-07T01:31:31;4.40;99.90
20881;DHT22;10600;53.096;8.802;2022-12-07T01:32:32;4.40;99.90
20881;DHT22;10600;53.096;8.802;2022-12-07T01:33:35;4.40;99.90
20881;DHT22;10600;53.096;8.802;2022-12-07T01:34:36;4.40;99.90
20881;DHT22;10600;53.096;8.802;2022-12-07T01:35:36;4.40;99.90
20881;DHT22;10600;53.096;8.802;2022-12-07T01:36:37;4.40;99.90
20881;DHT22;10600;53.096;8.802;2022-12-07T01:37:38;4.40;99.90
20881;DHT22;10600;53.096;8.802;2022-12-07T01:38:39;4.40;99.90
20881;DHT22;10600;53.096;8.802;2022-12-07T01:39:40;4.30;99.90
20881;DHT22;10600;53.096;8.802;2022-12-07T01:40:42;4.30;99.90
20881;DHT22;10600;53.096;8.802;2022-12-07T01:41:42;4.30;99.90
20881;DHT22;10600;53.096;8.802;2022-12-07T01:42:43;4.30;99.90
20881;DHT22;10600;53.096;8.802;2022-12-07T01:44:07;4.30;99.90
20881;DHT22;10600;53.096;8.802;2022-12-07T01:46:18;4.30;99.90
20881;DHT22;10600;53.096;8.802;2022-12-07T01:47:18;4.30;99.90
20881;DHT22;10600;53.096;8.802;2022-12-07T01:48:32;4.30;99.90
20881;DHT22;10600;53.096;8.802;2022-12-07T01:49:37;4.20;99.90
20881;DHT22;10600;53.096;8.802;2022-12-07T01:50:40;4.20;99.90
20881;DHT22;10600;53.096;8.802;2022-12-07T01:51:42;4.20;99.90
20881;DHT22;10600;53.096;8.802;2022-12-07T01:52:45;4.20;99.90
20881;DHT22;10600;53.096;8.802;2022-12-07T01:53:48;4.20;99.90
20881;DHT22;10600;53.096;8.802;2022-12-07T01:54:52;4.20;99.90
20881;DHT22;10600;53.096;8.802;2022-12-07T01:55:54;4.20;99.90
20881;DHT22;10600;53.096;8.802;2022-12-07T01:56:56;4.20;99.90
20881;DHT22;10600;53.096;8.802;2022-12-07T01:57:58;4.20;99.90
20881;DHT22;10600;53.096;8.802;2022-12-07T01:59:00;4.10;99.90
20881;DHT22;10600;53.096;8.802;2022-12-07T02:00:01;4.10;99.90
20881;DHT22;10600;53.096;8.802;2022-12-07T02:01:02;4.10;99.90
20881;DHT22;10600;53.096;8.802;2022-12-07T02:02:05;4.10;99.90
20881;DHT22;10600;53.096;8.802;2022-12-07T02:03:13;4.00;99.90
20881;DHT22;10600;53.096;8.802;2022-12-07T02:04:16;4.00;99.90
20881;DHT22;10600;53.096;8.802;2022-12-07T02:05:18;4.00;99.90
20881;DHT22;10600;53.096;8.802;2022-12-07T02:06:23;4.00;99.90
20881;DHT22;10600;53.096;8.802;2022-12-07T02:07:25;4.10;99.90
20881;DHT22;10600;53.096;8.802;2022-12-07T02:08:27;4.00;99.90
20881;DHT22;10600;53.096;8.802;2022-12-07T02:09:27;4.00;99.90
20881;DHT22;10600;53.096;8.802;2022-12-07T02:10:30;4.00;99.90
20881;DHT22;10600;53.096;8.802;2022-12-07T02:11:31;4.00;99.90
20881;DHT22;10600;53.096;8.802;2022-12-07T02:12:31;3.90;99.90
20881;DHT22;10600;53.096;8.802;2022-12-07T02:13:34;3.90;99.90
20881;DHT22;10600;53.096;8.802;2022-12-07T02:14:35;3.90;99.90
20881;DHT22;10600;53.096;8.802;2022-12-07T02:15:49;3.90;99.90
20881;DHT22;10600;53.096;8.802;2022-12-07T02:20:32;3.90;99.90
20881;DHT22;10600;53.096;8.802;2022-12-07T02:21:15;3.90;99.90
20881;DHT22;10600;53.096;8.802;2022-12-07T02:26:38;3.80;99.90
20881;DHT22;10600;53.096;8.802;2022-12-07T02:27:50;3.80;99.90
20881;DHT22;10600;53.096;8.802;2022-12-07T02:31:15;3.80;99.90
20881;DHT22;10600;53.096;8.802;2022-12-07T02:32:26;3.80;99.90
20881;DHT22;10600;53.096;8.802;2022-12-07T02:33:36;3.80;99.90
20881;DHT22;10600;53.096;8.802;2022-12-07T02:35:06;3.80;99.90
20881;DHT22;10600;53.096;8.802;2022-12-07T02:36:12;3.80;99.90
20881;DHT22;10600;53.096;8.802;2022-12-07T02:40:02;3.80;99.90
20881;DHT22;10600;53.096;8.802;2022-12-07T02:42:15;3.80;99.90
20881;DHT22;10600;53.096;8.802;2022-12-07T02:43:26;3.80;99.90
20881;DHT22;10600;53.096;8.802;2022-12-07T02:44:28;3.80;99.90
20881;DHT22;10600;53.096;8.802;2022-12-07T02:45:31;3.80;99.90
20881;DHT22;10600;53.096;8.802;2022-12-07T02:46:37;3.80;99.90
20881;DHT22;10600;53.096;8.802;2022-12-07T02:47:39;3.80;99.90
20881;DHT22;10600;53.096;8.802;2022-12-07T02:48:41;3.80;99.90
20881;DHT22;10600;53.096;8.802;2022-12-07T02:49:43;3.80;99.90
20881;DHT22;10600;53.096;8.802;2022-12-07T02:50:49;3.80;99.90
20881;DHT22;10600;53.096;8.802;2022-12-07T02:51:52;3.80;99.90
20881;DHT22;10600;53.096;8.802;2022-12-07T02:52:52;3.90;99.90
20881;DHT22;10600;53.096;8.802;2022-12-07T02:53:53;3.90;99.90
20881;DHT22;10600;53.096;8.802;2022-12-07T02:54:54;3.90;99.90
20881;DHT22;10600;53.096;8.802;2022-12-07T02:55:55;3.90;99.90
20881;DHT22;10600;53.096;8.802;2022-12-07T02:57:14;3.90;99.90
20881;DHT22;10600;53.096;8.802;2022-12-07T02:58:45;3.90;99.90
20881;DHT22;10600;53.096;8.802;2022-12-07T03:00:08;3.90;99.90
20881;DHT22;10600;53.096;8.802;2022-12-07T03:03:14;4.00;99.90
20881;DHT22;10600;53.096;8.802;2022-12-07T03:05:44;4.00;99.90
20881;DHT22;10600;53.096;8.802;2022-12-07T03:06:54;4.00;99.90
20881;DHT22;10600;53.096;8.802;2022-12-07T03:09:14;4.10;99.90
20881;DHT22;10600;53.096;8.802;2022-12-07T03:10:28;4.00;99.90
20881;DHT22;10600;53.096;8.802;2022-12-07T03:14:24;4.00;99.90
20881;DHT22;10600;53.096;8.802;2022-12-07T03:15:46;4.00;99.90
20881;DHT22;10600;53.096;8.802;2022-12-07T03:16:57;4.00;99.90
20881;DHT22;10600;53.096;8.802;2022-12-07T03:18:00;4.00;99.90
20881;DHT22;10600;53.096;8.802;2022-12-07T03:19:14;4.00;99.90
20881;DHT22;10600;53.096;8.802;2022-12-07T03:20:19;4.00;99.90
20881;DHT22;10600;53.096;8.802;2022-12-07T03:21:29;3.90;99.90
20881;DHT22;10600;53.096;8.802;2022-12-07T03:22:34;4.00;99.90
20881;DHT22;10600;53.096;8.802;2022-12-07T03:23:37;4.00;99.90
20881;DHT22;10600;53.096;8.802;2022-12-07T03:24:43;4.00;99.90
20881;DHT22;10600;53.096;8.802;2022-12-07T03:25:49;4.00;99.90
20881;DHT22;10600;53.096;8.802;2022-12-07T03:27:01;4.00;99.90
20881;DHT22;10600;53.096;8.802;2022-12-07T03:28:05;4.00;99.90
20881;DHT22;10600;53.096;8.802;2022-12-07T03:29:17;4.00;99.90
20881;DHT22;10600;53.096;8.802;2022-12-07T03:30:21;4.00;99.90
20881;DHT22;10600;53.096;8.802;2022-12-07T03:31:26;4.00;99.90
20881;DHT22;10600;53.096;8.802;2022-12-07T03:37:34;4.10;99.90
20881;DHT22;10600;53.096;8.802;2022-12-07T03:38:42;4.10;99.90
20881;DHT22;10600;53.096;8.802;2022-12-07T03:39:57;4.10;99.90
20881;DHT22;10600;53.096;8.802;2022-12-07T03:41:08;4.10;99.90
20881;DHT22;10600;53.096;8.802;2022-12-07T03:42:10;4.10;99.90
20881;DHT22;10600;53.096;8.802;2022-12-07T03:43:11;4.10;99.90
20881;DHT22;10600;53.096;8.802;2022-12-07T03:44:13;4.20;99.90
20881;DHT22;10600;53.096;8.802;2022-12-07T03:45:15;4.10;99.90
20881;DHT22;10600;53.096;8.802;2022-12-07T03:46:41;4.20;99.90
20881;DHT22;10600;53.096;8.802;2022-12-07T03:48:14;4.20;99.90
20881;DHT22;10600;53.096;8.802;2022-12-07T03:49:37;4.20;99.90
20881;DHT22;10600;53.096;8.802;2022-12-07T03:50:50;4.20;99.90
20881;DHT22;10600;53.096;8.802;2022-12-07T03:52:30;4.20;99.90
20881;DHT22;10600;53.096;8.802;2022-12-07T03:53:40;4.20;99.90
20881;DHT22;10600;53.096;8.802;2022-12-07T03:54:55;4.20;99.90
20881;DHT22;10600;53.096;8.802;2022-12-07T03:55:58;4.20;99.90
20881;DHT22;10600;53.096;8.802;2022-12-07T03:57:01;4.20;99.90
20881;DHT22;10600;53.096;8.802;2022-12-07T03:58:09;4.10;99.90
20881;DHT22;10600;53.096;8.802;2022-12-07T03:59:11;4.10;99.90
20881;DHT22;10600;53.096;8.802;2022-12-07T04:00:13;4.10;99.90
20881;DHT22;10600;53.096;8.802;2022-12-07T04:01:14;4.00;99.90
20881;DHT22;10600;53.096;8.802;2022-12-07T04:02:15;4.00;99.90
20881;DHT22;10600;53.096;8.802;2022-12-07T04:03:16;4.00;99.90
20881;DHT22;10600;53.096;8.802;2022-12-07T04:04:17;4.00;99.90
20881;DHT22;10600;53.096;8.802;2022-12-07T04:05:18;3.90;99.90
20881;DHT22;10600;53.096;8.802;2022-12-07T04:06:19;3.90;99.90
20881;DHT22;10600;53.096;8.802;2022-12-07T04:07:19;3.90;99.90
20881;DHT22;10600;53.096;8.802;2022-12-07T04:08:20;3.80;99.90
20881;DHT22;10600;53.096;8.802;2022-12-07T04:09:21;3.80;99.90
20881;DHT22;10600;53.096;8.802;2022-12-07T04:10:22;3.80;99.90
20881;DHT22;10600;53.096;8.802;2022-12-07T04:11:22;3.80;99.90
20881;DHT22;10600;53.096;8.802;2022-12-07T04:12:23;3.80;99.90
20881;DHT22;10600;53.096;8.802;2022-12-07T04:13:24;3.70;99.90
20881;DHT22;10600;53.096;8.802;2022-12-07T04:14:24;3.70;99.90
20881;DHT22;10600;53.096;8.802;2022-12-07T04:15:25;3.70;99.90
20881;DHT22;10600;53.096;8.802;2022-12-07T04:16:26;3.70;99.90
20881;DHT22;10600;53.096;8.802;2022-12-07T04:17:26;3.70;99.90
20881;DHT22;10600;53.096;8.802;2022-12-07T04:18:27;3.60;99.90
20881;DHT22;10600;53.096;8.802;2022-12-07T04:19:30;3.60;99.90
20881;DHT22;10600;53.096;8.802;2022-12-07T04:20:30;3.60;99.90
20881;DHT22;10600;53.096;8.802;2022-12-07T04:21:31;3.60;99.90
20881;DHT22;10600;53.096;8.802;2022-12-07T04:22:32;3.60;99.90
20881;DHT22;10600;53.096;8.802;2022-12-07T04:23:32;3.60;99.90
20881;DHT22;10600;53.096;8.802;2022-12-07T04:24:33;3.60;99.90
20881;DHT22;10600;53.096;8.802;2022-12-07T04:25:34;3.60;99.90
20881;DHT22;10600;53.096;8.802;2022-12-07T04:26:35;3.60;99.90
20881;DHT22;10600;53.096;8.802;2022-12-07T04:27:36;3.60;99.90
20881;DHT22;10600;53.096;8.802;2022-12-07T04:28:37;3.60;99.90
20881;DHT22;10600;53.096;8.802;2022-12-07T04:29:37;3.60;99.90
20881;DHT22;10600;53.096;8.802;2022-12-07T04:30:38;3.60;99.90
20881;DHT22;10600;53.096;8.802;2022-12-07T04:31:39;3.60;99.90
20881;DHT22;10600;53.096;8.802;2022-12-07T04:32:39;3.60;99.90
20881;DHT22;10600;53.096;8.802;2022-12-07T04:33:40;3.60;99.90
20881;DHT22;10600;53.096;8.802;2022-12-07T04:34:41;3.60;99.90
20881;DHT22;10600;53.096;8.802;2022-12-07T04:35:42;3.60;99.90
20881;DHT22;10600;53.096;8.802;2022-12-07T04:36:43;3.60;99.90
20881;DHT22;10600;53.096;8.802;2022-12-07T04:37:44;3.60;99.90
20881;DHT22;10600;53.096;8.802;2022-12-07T04:38:45;3.60;99.90
20881;DHT22;10600;53.096;8.802;2022-12-07T04:39:46;3.60;99.90
20881;DHT22;10600;53.096;8.802;2022-12-07T04:40:46;3.60;99.90
20881;DHT22;10600;53.096;8.802;2022-12-07T04:41:47;3.60;99.90
20881;DHT22;10600;53.096;8.802;2022-12-07T04:42:48;3.60;99.90
20881;DHT22;10600;53.096;8.802;2022-12-07T04:43:48;3.60;99.90
20881;DHT22;10600;53.096;8.802;2022-12-07T04:44:49;3.60;99.90
20881;DHT22;10600;53.096;8.802;2022-12-07T04:45:51;3.60;99.90
20881;DHT22;10600;53.096;8.802;2022-12-07T04:46:52;3.60;99.90
20881;DHT22;10600;53.096;8.802;2022-12-07T04:47:53;3.60;99.90
20881;DHT22;10600;53.096;8.802;2022-12-07T04:48:54;3.60;99.90
20881;DHT22;10600;53.096;8.802;2022-12-07T04:49:55;3.60;99.90
20881;DHT22;10600;53.096;8.802;2022-12-07T04:50:56;3.60;99.90
20881;DHT22;10600;53.096;8.802;2022-12-07T04:51:56;3.60;99.90
20881;DHT22;10600;53.096;8.802;2022-12-07T04:52:57;3.60;99.90
20881;DHT22;10600;53.096;8.802;2022-12-07T04:53:58;3.60;99.90
20881;DHT22;10600;53.096;8.802;2022-12-07T04:54:59;3.60;99.90
20881;DHT22;10600;53.096;8.802;2022-12-07T04:55:59;3.60;99.90
20881;DHT22;10600;53.096;8.802;2022-12-07T04:57:01;3.60;99.90
20881;DHT22;10600;53.096;8.802;2022-12-07T04:58:02;3.60;99.90
20881;DHT22;10600;53.096;8.802;2022-12-07T04:59:04;3.60;99.90
20881;DHT22;10600;53.096;8.802;2022-12-07T05:00:08;3.60;99.90
20881;DHT22;10600;53.096;8.802;2022-12-07T05:01:12;3.60;99.90
20881;DHT22;10600;53.096;8.802;2022-12-07T05:02:13;3.60;99.90
20881;DHT22;10600;53.096;8.802;2022-12-07T05:03:14;3.60;99.90
20881;DHT22;10600;53.096;8.802;2022-12-07T05:04:14;3.60;99.90
20881;DHT22;10600;53.096;8.802;2022-12-07T05:05:16;3.60;99.90
20881;DHT22;10600;53.096;8.802;2022-12-07T05:06:17;3.60;99.90
20881;DHT22;10600;53.096;8.802;2022-12-07T05:07:17;3.60;99.90
20881;DHT22;10600;53.096;8.802;2022-12-07T05:08:18;3.60;99.90
20881;DHT22;10600;53.096;8.802;2022-12-07T05:09:19;3.60;99.90
20881;DHT22;10600;53.096;8.802;2022-12-07T05:10:20;3.60;99.90
20881;DHT22;10600;53.096;8.802;2022-12-07T05:11:21;3.60;99.90
20881;DHT22;10600;53.096;8.802;2022-12-07T05:12:40;3.60;99.90
20881;DHT22;10600;53.096;8.802;2022-12-07T05:13:41;3.60;99.90
20881;DHT22;10600;53.096;8.802;2022-12-07T05:14:41;3.50;99.90
20881;DHT22;10600;53.096;8.802;2022-12-07T05:15:42;3.50;99.90
20881;DHT22;10600;53.096;8.802;2022-12-07T05:16:45;3.50;99.90
20881;DHT22;10600;53.096;8.802;2022-12-07T05:17:46;3.50;99.90
20881;DHT22;10600;53.096;8.802;2022-12-07T05:18:47;3.50;99.90
20881;DHT22;10600;53.096;8.802;2022-12-07T05:19:48;3.40;99.90
20881;DHT22;10600;53.096;8.802;2022-12-07T05:20:48;3.40;99.90
20881;DHT22;10600;53.096;8.802;2022-12-07T05:21:49;3.40;99.90
20881;DHT22;10600;53.096;8.802;2022-12-07T05:22:50;3.40;99.90
20881;DHT22;10600;53.096;8.802;2022-12-07T05:23:51;3.40;99.90
20881;DHT22;10600;53.096;8.802;2022-12-07T05:24:51;3.40;99.90
20881;DHT22;10600;53.096;8.802;2022-12-07T05:25:52;3.30;99.90
20881;DHT22;10600;53.096;8.802;2022-12-07T05:26:53;3.30;99.90
20881;DHT22;10600;53.096;8.802;2022-12-07T05:27:55;3.30;99.90
20881;DHT22;10600;53.096;8.802;2022-12-07T05:28:56;3.30;99.90
20881;DHT22;10600;53.096;8.802;2022-12-07T05:29:57;3.30;99.90
20881;DHT22;10600;53.096;8.802;2022-12-07T05:30:58;3.30;99.90
20881;DHT22;10600;53.096;8.802;2022-12-07T05:31:59;3.20;99.90
20881;DHT22;10600;53.096;8.802;2022-12-07T05:33:00;3.20;99.90
20881;DHT22;10600;53.096;8.802;2022-12-07T05:34:00;3.20;99.90
20881;DHT22;10600;53.096;8.802;2022-12-07T05:35:01;3.20;99.90
20881;DHT22;10600;53.096;8.802;2022-12-07T05:36:02;3.20;99.90
20881;DHT22;10600;53.096;8.802;2022-12-07T05:37:05;3.20;99.90
20881;DHT22;10600;53.096;8.802;2022-12-07T05:38:06;3.20;99.90
20881;DHT22;10600;53.096;8.802;2022-12-07T05:39:07;3.20;99.90
20881;DHT22;10600;53.096;8.802;2022-12-07T05:40:08;3.20;99.90
20881;DHT22;10600;53.096;8.802;2022-12-07T05:41:13;3.20;99.90
20881;DHT22;10600;53.096;8.802;2022-12-07T05:42:34;3.20;99.90
20881;DHT22;10600;53.096;8.802;2022-12-07T05:43:34;3.20;99.90
20881;DHT22;10600;53.096;8.802;2022-12-07T05:44:35;3.20;99.90
20881;DHT22;10600;53.096;8.802;2022-12-07T05:45:36;3.20;99.90
20881;DHT22;10600;53.096;8.802;2022-12-07T05:46:37;3.20;99.90
20881;DHT22;10600;53.096;8.802;2022-12-07T05:47:37;3.20;99.90
20881;DHT22;10600;53.096;8.802;2022-12-07T05:48:38;3.20;99.90
20881;DHT22;10600;53.096;8.802;2022-12-07T05:49:39;3.20;99.90
20881;DHT22;10600;53.096;8.802;2022-12-07T05:50:40;3.20;99.90
20881;DHT22;10600;53.096;8.802;2022-12-07T05:51:40;3.20;99.90
20881;DHT22;10600;53.096;8.802;2022-12-07T05:52:41;3.20;99.90
20881;DHT22;10600;53.096;8.802;2022-12-07T05:53:42;3.20;99.90
20881;DHT22;10600;53.096;8.802;2022-12-07T05:54:42;3.20;99.90
20881;DHT22;10600;53.096;8.802;2022-12-07T05:55:43;3.20;99.90
20881;DHT22;10600;53.096;8.802;2022-12-07T05:56:44;3.20;99.90
20881;DHT22;10600;53.096;8.802;2022-12-07T05:57:45;3.20;99.90
20881;DHT22;10600;53.096;8.802;2022-12-07T05:59:05;3.20;99.90
20881;DHT22;10600;53.096;8.802;2022-12-07T06:00:24;3.20;99.90
20881;DHT22;10600;53.096;8.802;2022-12-07T06:01:25;3.20;99.90
20881;DHT22;10600;53.096;8.802;2022-12-07T06:02:26;3.20;99.90
20881;DHT22;10600;53.096;8.802;2022-12-07T06:03:26;3.20;99.90
20881;DHT22;10600;53.096;8.802;2022-12-07T06:04:32;3.20;99.90
20881;DHT22;10600;53.096;8.802;2022-12-07T06:05:33;3.20;99.90
20881;DHT22;10600;53.096;8.802;2022-12-07T06:06:34;3.20;99.90
20881;DHT22;10600;53.096;8.802;2022-12-07T06:07:35;3.20;99.90
20881;DHT22;10600;53.096;8.802;2022-12-07T06:08:35;3.20;99.90
20881;DHT22;10600;53.096;8.802;2022-12-07T06:09:36;3.20;99.90
20881;DHT22;10600;53.096;8.802;2022-12-07T06:10:37;3.20;99.90
20881;DHT22;10600;53.096;8.802;2022-12-07T06:11:38;3.30;99.90
20881;DHT22;10600;53.096;8.802;2022-12-07T06:12:57;3.30;99.90
20881;DHT22;10600;53.096;8.802;2022-12-07T06:13:57;3.30;99.90
20881;DHT22;10600;53.096;8.802;2022-12-07T06:14:58;3.30;99.90
20881;DHT22;10600;53.096;8.802;2022-12-07T06:15:58;3.30;99.90
20881;DHT22;10600;53.096;8.802;2022-12-07T06:16:59;3.40;99.90
20881;DHT22;10600;53.096;8.802;2022-12-07T06:18:00;3.40;99.90
20881;DHT22;10600;53.096;8.802;2022-12-07T06:19:01;3.40;99.90
20881;DHT22;10600;53.096;8.802;2022-12-07T06:20:02;3.40;99.90
20881;DHT22;10600;53.096;8.802;2022-12-07T06:21:03;3.50;99.90
20881;DHT22;10600;53.096;8.802;2022-12-07T06:22:04;3.50;99.90
20881;DHT22;10600;53.096;8.802;2022-12-07T06:23:05;3.50;99.90
20881;DHT22;10600;53.096;8.802;2022-12-07T06:24:06;3.50;99.90
20881;DHT22;10600;53.096;8.802;2022-12-07T06:25:07;3.50;99.90
20881;DHT22;10600;53.096;8.802;2022-12-07T06:26:09;3.50;99.90
20881;DHT22;10600;53.096;8.802;2022-12-07T06:27:10;3.50;99.90
20881;DHT22;10600;53.096;8.802;2022-12-07T06:28:10;3.50;99.90
20881;DHT22;10600;53.096;8.802;2022-12-07T06:29:12;3.50;99.90
20881;DHT22;10600;53.096;8.802;2022-12-07T06:30:13;3.40;99.90
20881;DHT22;10600;53.096;8.802;2022-12-07T06:31:14;3.40;99.90
20881;DHT22;10600;53.096;8.802;2022-12-07T06:32:14;3.40;99.90
20881;DHT22;10600;53.096;8.802;2022-12-07T06:33:15;3.40;99.90
20881;DHT22;10600;53.096;8.802;2022-12-07T06:34:18;3.40;99.90
20881;DHT22;10600;53.096;8.802;2022-12-07T06:35:19;3.40;99.90
20881;DHT22;10600;53.096;8.802;2022-12-07T06:36:20;3.40;99.90
20881;DHT22;10600;53.096;8.802;2022-12-07T06:37:20;3.40;99.90
20881;DHT22;10600;53.096;8.802;2022-12-07T06:38:21;3.50;99.90
20881;DHT22;10600;53.096;8.802;2022-12-07T06:39:24;3.40;99.90
20881;DHT22;10600;53.096;8.802;2022-12-07T06:40:25;3.40;99.90
20881;DHT22;10600;53.096;8.802;2022-12-07T06:41:26;3.50;99.90
20881;DHT22;10600;53.096;8.802;2022-12-07T06:42:27;3.50;99.90
20881;DHT22;10600;53.096;8.802;2022-12-07T06:43:27;3.40;99.90
20881;DHT22;10600;53.096;8.802;2022-12-07T06:44:28;3.50;99.90
20881;DHT22;10600;53.096;8.802;2022-12-07T06:45:29;3.50;99.90
20881;DHT22;10600;53.096;8.802;2022-12-07T06:46:29;3.50;99.90
20881;DHT22;10600;53.096;8.802;2022-12-07T06:47:30;3.50;99.90
20881;DHT22;10600;53.096;8.802;2022-12-07T06:48:31;3.50;99.90
20881;DHT22;10600;53.096;8.802;2022-12-07T06:49:31;3.50;99.90
20881;DHT22;10600;53.096;8.802;2022-12-07T06:50:32;3.40;99.90
20881;DHT22;10600;53.096;8.802;2022-12-07T06:51:33;3.40;99.90
20881;DHT22;10600;53.096;8.802;2022-12-07T06:52:36;3.40;99.90
20881;DHT22;10600;53.096;8.802;2022-12-07T06:53:37;3.40;99.90
20881;DHT22;10600;53.096;8.802;2022-12-07T06:54:38;3.40;99.90
20881;DHT22;10600;53.096;8.802;2022-12-07T06:55:38;3.40;99.90
20881;DHT22;10600;53.096;8.802;2022-12-07T06:56:39;3.40;99.90
20881;DHT22;10600;53.096;8.802;2022-12-07T06:57:40;3.40;99.90
20881;DHT22;10600;53.096;8.802;2022-12-07T06:58:40;3.40;99.90
20881;DHT22;10600;53.096;8.802;2022-12-07T06:59:41;3.40;99.90
20881;DHT22;10600;53.096;8.802;2022-12-07T07:00:42;3.40;99.90
20881;DHT22;10600;53.096;8.802;2022-12-07T07:01:43;3.30;99.90
20881;DHT22;10600;53.096;8.802;2022-12-07T07:02:43;3.40;99.90
20881;DHT22;10600;53.096;8.802;2022-12-07T07:03:45;3.40;99.90
20881;DHT22;10600;53.096;8.802;2022-12-07T07:04:46;3.40;99.90
20881;DHT22;10600;53.096;8.802;2022-12-07T07:05:46;3.40;99.90
20881;DHT22;10600;53.096;8.802;2022-12-07T07:06:47;3.40;99.90
20881;DHT22;10600;53.096;8.802;2022-12-07T07:07:51;3.40;99.90
20881;DHT22;10600;53.096;8.802;2022-12-07T07:08:52;3.40;99.90
20881;DHT22;10600;53.096;8.802;2022-12-07T07:09:52;3.40;99.90
20881;DHT22;10600;53.096;8.802;2022-12-07T07:10:53;3.30;99.90